Time;durP1;ratioP1;P1;durP2;ratioP2;P2;SDS_P1;SDS_P2;PMS_P1;PMS_P2;Temp;Humidity;BMP_temperature;BMP_pressure;BME280_temperature;BME280_humidity;BME280_pressure;Samples;Min_cycle;Max_cycle;Signal;HPM_P1;HPM_P2
2022/12/14 00:00:48;;;;;;;1999.90;999.90;;;-1.50;99.90;;;;;;6725198;88;20211;-78
2022/12/14 00:10:49;;;;;;;1999.90;999.90;;;-1.50;99.90;;;;;;6727751;88;20205;-77
2022/12/14 00:20:49;;;;;;;1999.90;999.90;;;-1.60;99.90;;;;;;6728025;88;20193;-77
2022/12/14 00:30:56;;;;;;;1999.90;999.90;;;-1.60;99.90;;;;;;6711361;88;20183;-77
2022/12/14 00:40:57;;;;;;;1999.90;999.90;;;-1.50;99.90;;;;;;6728826;88;20203;-78
2022/12/14 00:50:58;;;;;;;1999.90;999.90;;;-1.50;99.90;;;;;;6715963;88;20198;-77
2022/12/14 01:01:01;;;;;;;1999.90;999.90;;;-1.60;99.90;;;;;;6712492;88;20190;-78
2022/12/14 01:11:06;;;;;;;1999.90;999.90;;;-1.50;99.90;;;;;;6713020;88;20195;-78
2022/12/14 01:21:15;;;;;;;1999.90;999.90;;;-1.50;99.90;;;;;;6712629;88;20260;-78
2022/12/14 01:31:19;;;;;;;1999.90;999.90;;;-1.50;99.90;;;;;;6713051;88;20181;-78
2022/12/14 01:41:35;;;;;;;1999.90;999.90;;;-1.50;99.90;;;;;;6713855;88;20206;-77
2022/12/14 01:51:37;;;;;;;1999.90;999.90;;;-1.50;99.90;;;;;;6715046;88;20696;-78
2022/12/14 02:01:38;;;;;;;1999.90;999.90;;;-1.50;99.90;;;;;;6713614;88;20231;-76
2022/12/14 02:12:01;;;;;;;1999.90;999.90;;;-1.50;99.90;;;;;;6713082;88;20177;-76
2022/12/14 02:22:23;;;;;;;1999.90;999.90;;;-1.60;99.90;;;;;;6713850;88;20720;-76
2022/12/14 02:32:43;;;;;;;1999.90;999.90;;;-1.60;99.90;;;;;;6713723;88;20625;-77
2022/12/14 02:43:05;;;;;;;1999.90;999.90;;;-1.70;99.90;;;;;;6715617;88;20225;-78
2022/12/14 02:53:18;;;;;;;1999.90;999.90;;;-1.70;99.90;;;;;;6716800;88;20666;-77
2022/12/14 03:03:18;;;;;;;1999.90;999.90;;;-1.80;99.90;;;;;;6709580;88;20688;-76
2022/12/14 03:13:25;;;;;;;1999.90;999.90;;;-1.70;99.90;;;;;;6707475;88;20201;-76
2022/12/14 03:23:31;;;;;;;1999.90;999.90;;;-1.70;99.90;;;;;;6707833;88;20330;-76
2022/12/14 03:33:33;;;;;;;1999.90;999.90;;;-1.70;99.90;;;;;;6707127;88;20508;-77
2022/12/14 03:43:43;;;;;;;1999.90;999.90;;;-1.70;99.90;;;;;;6708554;88;20291;-77
2022/12/14 03:54:29;;;;;;;1999.90;999.90;;;-1.70;99.90;;;;;;6710508;88;20298;-76
2022/12/14 04:04:45;;;;;;;1999.90;999.90;;;-1.70;99.90;;;;;;6710086;88;20581;-78
2022/12/14 04:35:41;;;;;;;1999.90;999.90;;;-1.60;99.90;;;;;;6725364;77;20199;-73
2022/12/14 04:45:51;;;;;;;1999.90;999.90;;;-1.60;99.90;;;;;;6744839;88;20292;-73
2022/12/14 04:56:07;;;;;;;1999.90;999.90;;;-1.70;99.90;;;;;;6738884;88;20302;-73
2022/12/14 05:06:23;;;;;;;1999.90;999.90;;;-1.70;99.90;;;;;;6742355;88;20199;-73
2022/12/14 05:16:24;;;;;;;1999.90;999.90;;;-1.50;99.90;;;;;;6739689;88;20249;-73
2022/12/14 05:26:25;;;;;;;1999.90;999.90;;;-1.50;99.90;;;;;;6737717;88;20197;-73
2022/12/14 05:36:25;;;;;;;1999.90;999.90;;;-1.70;99.90;;;;;;6744780;88;20210;-73
2022/12/14 05:46:26;;;;;;;1999.90;999.90;;;-1.60;99.90;;;;;;6747408;88;20973;-73
2022/12/14 05:56:36;;;;;;;1999.90;999.90;;;-1.60;99.90;;;;;;6739971;88;20602;-73
2022/12/14 06:06:36;;;;;;;1999.90;999.90;;;-1.50;99.90;;;;;;6738692;88;20425;-73
2022/12/14 06:16:41;;;;;;;1999.90;999.90;;;-1.50;99.90;;;;;;6752951;88;20584;-73
2022/12/14 06:26:42;;;;;;;1999.90;999.90;;;-1.40;99.90;;;;;;6737626;88;20517;-73
2022/12/14 06:36:43;;;;;;;1999.90;999.90;;;-1.40;99.90;;;;;;6741583;88;20188;-75
2022/12/14 06:46:43;;;;;;;1999.90;999.90;;;-1.40;99.90;;;;;;6745506;88;20172;-75
2022/12/14 06:56:46;;;;;;;1999.90;999.90;;;-1.30;99.90;;;;;;6751418;87;20187;-74
2022/12/14 07:06:46;;;;;;;1999.90;999.90;;;-1.20;99.90;;;;;;6757552;88;20188;-75
2022/12/14 07:16:47;;;;;;;1999.90;999.90;;;-1.20;99.90;;;;;;6738187;88;20696;-73
2022/12/14 07:26:47;;;;;;;1999.90;999.90;;;-1.10;99.90;;;;;;6746438;88;20546;-74
2022/12/14 07:36:49;;;;;;;1999.90;999.90;;;-1.20;99.90;;;;;;6737019;88;20176;-74
2022/12/14 07:46:51;;;;;;;1999.90;999.90;;;-1.10;99.90;;;;;;6738305;88;20250;-74
2022/12/14 07:56:52;;;;;;;1999.90;999.90;;;-1.10;99.90;;;;;;6740586;88;20948;-74
2022/12/14 08:06:53;;;;;;;1999.90;999.90;;;-1.00;99.90;;;;;;6737553;88;20194;-74
2022/12/14 08:16:53;;;;;;;1999.90;999.90;;;-1.10;99.90;;;;;;6743789;88;20184;-75
2022/12/14 08:26:54;;;;;;;1999.90;999.90;;;-1.00;99.90;;;;;;6748257;88;20195;-74
2022/12/14 08:36:54;;;;;;;1999.90;999.90;;;-1.00;99.90;;;;;;6744837;88;20188;-73
2022/12/14 08:46:55;;;;;;;1999.90;999.90;;;-1.30;99.90;;;;;;6747262;88;20761;-74
2022/12/14 08:56:55;;;;;;;1999.90;999.90;;;-1.10;99.90;;;;;;6746210;88;20227;-73
2022/12/14 09:06:56;;;;;;;1999.90;999.90;;;-1.40;99.90;;;;;;6743716;88;20693;-74
2022/12/14 09:16:57;;;;;;;1999.90;999.90;;;-1.50;99.90;;;;;;6736536;88;21058;-73
2022/12/14 09:26:59;;;;;;;1999.90;999.90;;;-1.40;99.90;;;;;;6745755;88;20238;-74
2022/12/14 09:37:03;;;;;;;1999.90;999.90;;;-1.30;99.90;;;;;;6745373;88;20212;-74
2022/12/14 09:47:21;;;;;;;1999.90;999.90;;;-1.40;99.90;;;;;;6744560;88;20191;-74
2022/12/14 09:57:31;;;;;;;1999.90;999.90;;;-1.60;99.90;;;;;;6742280;88;20185;-74
2022/12/14 10:07:51;;;;;;;1999.90;999.90;;;-1.60;99.90;;;;;;6739239;88;20258;-73
2022/12/14 10:18:04;;;;;;;1999.90;999.90;;;-1.60;99.90;;;;;;6746796;88;20315;-73
2022/12/14 10:28:39;;;;;;;1999.90;999.90;;;-1.50;99.90;;;;;;6751256;88;20511;-73
2022/12/14 10:38:58;;;;;;;1999.90;999.90;;;-1.40;99.90;;;;;;6738970;88;20324;-73
2022/12/14 10:49:19;;;;;;;1999.90;999.90;;;-1.50;99.90;;;;;;6741718;88;20320;-73
2022/12/14 10:59:20;;;;;;;1999.90;999.90;;;-1.40;99.90;;;;;;6747044;88;20284;-73
2022/12/14 11:09:22;;;;;;;1999.90;999.90;;;-1.60;99.90;;;;;;6741712;88;20181;-73
2022/12/14 11:19:25;;;;;;;1999.90;999.90;;;-1.40;99.90;;;;;;6759160;87;20165;-73
2022/12/14 11:29:38;;;;;;;1999.90;999.90;;;-1.50;99.90;;;;;;6738334;88;20221;-73
2022/12/14 11:39:41;;;;;;;1999.90;999.90;;;-1.50;99.90;;;;;;6745120;88;20291;-73
2022/12/14 11:49:45;;;;;;;1999.90;999.90;;;-1.40;99.90;;;;;;6743585;88;20205;-73
2022/12/14 11:59:52;;;;;;;1999.90;999.90;;;-1.30;99.90;;;;;;6739393;88;20323;-74
2022/12/14 12:09:53;;;;;;;1999.90;999.90;;;-1.30;99.90;;;;;;6747042;88;20304;-73
2022/12/14 12:19:54;;;;;;;1999.90;999.90;;;-1.10;99.90;;;;;;6746801;88;20205;-73
2022/12/14 12:30:07;;;;;;;1999.90;999.90;;;-0.90;99.90;;;;;;6749820;88;20189;-74
2022/12/14 12:40:30;;;;;;;1999.90;999.90;;;-0.90;99.90;;;;;;6748062;88;20570;-74
2022/12/14 12:50:35;;;;;;;1999.90;999.90;;;-1.00;99.90;;;;;;6740545;88;20200;-74
2022/12/14 13:00:39;;;;;;;1999.90;999.90;;;-0.90;99.90;;;;;;6739513;88;20184;-73
2022/12/14 13:10:42;;;;;;;1999.90;999.90;;;-0.70;99.90;;;;;;6740344;88;20731;-73
2022/12/14 13:20:43;;;;;;;1999.90;999.90;;;-0.70;99.90;;;;;;6746099;88;20219;-74
2022/12/14 13:31:04;;;;;;;1999.90;999.90;;;-0.50;99.90;;;;;;6750451;88;20802;-74
2022/12/14 13:41:13;;;;;;;1999.90;999.90;;;-0.50;99.90;;;;;;6750491;88;20228;-74
2022/12/14 13:51:36;;;;;;;1999.90;999.90;;;-0.50;99.90;;;;;;6739563;88;20600;-74
2022/12/14 14:01:46;;;;;;;1999.90;999.90;;;-0.70;99.90;;;;;;6741933;88;20231;-74
2022/12/14 14:12:03;;;;;;;1999.90;999.90;;;-0.50;99.90;;;;;;6741067;88;20201;-74
2022/12/14 14:22:17;;;;;;;1999.90;999.90;;;-0.60;99.90;;;;;;6743591;88;20718;-74
2022/12/14 14:32:34;;;;;;;1999.90;999.90;;;-0.60;99.90;;;;;;6739784;88;20235;-74
2022/12/14 14:42:44;;;;;;;1999.90;999.90;;;-0.30;99.90;;;;;;6744256;88;20620;-74
2022/12/14 14:52:58;;;;;;;1999.90;999.90;;;-0.50;99.90;;;;;;6740351;88;20283;-74
2022/12/14 15:02:59;;;;;;;1999.90;999.90;;;-0.40;99.90;;;;;;6743397;88;20607;-74
2022/12/14 15:13:07;;;;;;;1999.90;999.90;;;-0.30;99.90;;;;;;6743533;88;20246;-74
2022/12/14 15:23:13;;;;;;;1999.90;999.90;;;-0.50;99.90;;;;;;6742076;88;20210;-75
2022/12/14 15:33:23;;;;;;;1999.90;999.90;;;-0.60;99.90;;;;;;6743672;88;20206;-74
2022/12/14 15:43:25;;;;;;;1999.90;999.90;;;-0.40;99.90;;;;;;6757395;88;20230;-74
2022/12/14 15:53:38;;;;;;;1999.90;999.90;;;-0.40;99.90;;;;;;6745423;88;20200;-74
2022/12/14 16:03:42;;;;;;;1999.90;999.90;;;-0.50;99.90;;;;;;6741966;88;20242;-75
2022/12/14 16:13:44;;;;;;;1999.90;999.90;;;-0.80;99.90;;;;;;6743790;88;20322;-75
2022/12/14 16:23:45;;;;;;;1999.90;999.90;;;-0.90;99.90;;;;;;6739548;88;20224;-75
2022/12/14 16:33:48;;;;;;;1999.90;999.90;;;-0.70;99.90;;;;;;6749246;77;20242;-74
2022/12/14 16:43:59;;;;;;;1999.90;999.90;;;-0.60;99.90;;;;;;6730596;88;20207;-74
2022/12/14 16:54:04;;;;;;;1999.90;999.90;;;-0.80;99.90;;;;;;6735963;88;20189;-74
2022/12/14 17:04:08;;;;;;;1999.90;999.90;;;-1.20;99.90;;;;;;6737617;88;20281;-74
2022/12/14 17:14:08;;;;;;;1999.90;999.90;;;-1.20;99.90;;;;;;6727784;88;20283;-74
2022/12/14 17:24:15;;;;;;;1999.90;999.90;;;-0.80;99.90;;;;;;6731240;88;20186;-74
2022/12/14 17:34:16;;;;;;;1999.90;999.90;;;-0.90;99.90;;;;;;6731947;88;20181;-74
2022/12/14 17:44:19;;;;;;;1999.90;999.90;;;-1.10;99.90;;;;;;6732021;88;21172;-75
2022/12/14 17:54:19;;;;;;;1999.90;999.90;;;-1.30;99.90;;;;;;6733193;88;20176;-75
2022/12/14 18:04:20;;;;;;;1999.90;999.90;;;-1.40;99.90;;;;;;6729101;88;20189;-75
2022/12/14 18:14:20;;;;;;;1999.90;999.90;;;-1.60;99.90;;;;;;6737968;88;20655;-75
2022/12/14 18:24:21;;;;;;;1999.90;999.90;;;-1.70;99.90;;;;;;6736967;88;20471;-75
2022/12/14 18:34:21;;;;;;;1999.90;999.90;;;-1.70;99.90;;;;;;6734078;88;20682;-76
2022/12/14 18:44:22;;;;;;;1999.90;999.90;;;-1.70;99.90;;;;;;6732163;88;20361;-75
2022/12/14 18:54:23;;;;;;;1999.90;999.90;;;-1.70;99.90;;;;;;6731522;88;20208;-74
2022/12/14 19:04:23;;;;;;;1999.90;999.90;;;-1.90;99.90;;;;;;6732050;88;20195;-74
2022/12/14 19:14:24;;;;;;;1999.90;999.90;;;-2.00;99.90;;;;;;6732926;88;20215;-74
2022/12/14 19:24:24;;;;;;;1999.90;999.90;;;-2.40;99.90;;;;;;6742258;88;20529;-74
2022/12/14 19:34:25;;;;;;;1999.90;999.90;;;-2.70;99.90;;;;;;6729989;88;20506;-74
2022/12/14 19:44:26;;;;;;;1999.90;999.90;;;-2.70;99.90;;;;;;6727232;88;20211;-73
2022/12/14 19:54:29;;;;;;;1999.90;999.90;;;-2.80;99.90;;;;;;6729645;88;20177;-74
2022/12/14 20:04:30;;;;;;;1999.90;999.90;;;-2.90;99.90;;;;;;6729761;88;20188;-73
2022/12/14 20:14:31;;;;;;;1999.90;999.90;;;-3.00;99.90;;;;;;6725432;88;20206;-74
2022/12/14 20:24:31;;;;;;;1999.90;999.90;;;-3.20;99.90;;;;;;6734263;88;20313;-74
2022/12/14 20:34:32;;;;;;;1999.90;999.90;;;-3.40;99.90;;;;;;6736141;88;21004;-75
2022/12/14 20:44:32;;;;;;;1999.90;999.90;;;-3.60;99.90;;;;;;6729145;88;20228;-75
2022/12/14 20:54:33;;;;;;;1999.90;999.90;;;-3.70;99.90;;;;;;6732752;88;20685;-73
2022/12/14 21:04:33;;;;;;;1999.90;999.90;;;-3.70;99.90;;;;;;6732522;88;20335;-74
2022/12/14 21:14:41;;;;;;;1999.90;999.90;;;-3.80;99.90;;;;;;6734737;88;20494;-74
2022/12/14 21:24:42;;;;;;;1999.90;999.90;;;-3.90;99.90;;;;;;6745468;88;20181;-75
2022/12/14 21:34:43;;;;;;;1999.90;999.90;;;-4.10;99.90;;;;;;6740090;87;20535;-75
2022/12/14 21:44:49;;;;;;;1999.90;999.90;;;-4.10;99.90;;;;;;6729911;88;20186;-75
2022/12/14 21:54:50;;;;;;;1999.90;999.90;;;-4.00;99.90;;;;;;6746121;88;20599;-75
2022/12/14 22:04:54;;;;;;;1999.90;999.90;;;-4.30;99.90;;;;;;6734160;88;20228;-74
2022/12/14 22:14:55;;;;;;;1999.90;999.90;;;-4.40;99.90;;;;;;6729566;88;20248;-74
2022/12/14 22:24:55;;;;;;;1999.90;999.90;;;-4.30;99.90;;;;;;6733866;88;20316;-74
2022/12/14 22:34:56;;;;;;;1999.90;999.90;;;-4.30;99.90;;;;;;6728998;88;20631;-74
2022/12/14 22:56:05;;;;;;;1999.90;999.90;;;-4.50;99.90;;;;;;6729498;88;20552;-80
2022/12/14 23:06:14;;;;;;;1999.90;999.90;;;-4.60;99.90;;;;;;6711203;88;20181;-78
